Terminal Aerodrome Forecast
Issued by NWS Tuscon, AZ

Home | Current Version | Previous Version | Text Only | Print | Product List | Glossary On
Versions: 1 2 3 4 5 6 7 8 9 10 11 12 13
000
FTUS45 KTWC 281738
TAFTUS
TAF
KTUS 281738Z 2818/2918 35007KT P6SM SCT090 SCT250
     FM282300 29010KT P6SM VCTS SCT080CB BKN140
     FM290200 22010KT P6SM VCSH SCT080 BKN120
     FM290600 16010KT P6SM SCT100 SCT120 BKN200
     FM291000 15007KT P6SM SCT130 SCT200=

USA.gov is the U.S. government's official web portal to all federal, state and local government web resources and services.